sensor_id;sensor_type;location;lat;lon;timestamp;P1;durP1;ratioP1;P2;durP2;ratioP2
58661;SDS011;44432;49.786;22.760;2023-12-14T00:02:04;58.50;;;30.60;;
58661;SDS011;44432;49.786;22.760;2023-12-14T00:04:35;51.90;;;26.90;;
58661;SDS011;44432;49.786;22.760;2023-12-14T00:07:06;57.80;;;28.70;;
58661;SDS011;44432;49.786;22.760;2023-12-14T00:09:38;49.80;;;27.40;;
58661;SDS011;44432;49.786;22.760;2023-12-14T00:12:09;53.20;;;26.10;;
58661;SDS011;44432;49.786;22.760;2023-12-14T00:14:40;50.80;;;27.60;;
58661;SDS011;44432;49.786;22.760;2023-12-14T00:17:11;52.80;;;28.30;;
58661;SDS011;44432;49.786;22.760;2023-12-14T00:19:42;54.60;;;28.30;;
58661;SDS011;44432;49.786;22.760;2023-12-14T00:22:13;53.80;;;29.10;;
58661;SDS011;44432;49.786;22.760;2023-12-14T00:24:45;55.60;;;27.50;;
58661;SDS011;44432;49.786;22.760;2023-12-14T00:27:16;57.70;;;29.70;;
58661;SDS011;44432;49.786;22.760;2023-12-14T00:29:47;54.10;;;28.30;;
58661;SDS011;44432;49.786;22.760;2023-12-14T00:32:18;49.30;;;26.70;;
58661;SDS011;44432;49.786;22.760;2023-12-14T00:34:49;52.60;;;26.10;;
58661;SDS011;44432;49.786;22.760;2023-12-14T00:37:20;54.60;;;27.00;;
58661;SDS011;44432;49.786;22.760;2023-12-14T00:39:51;51.00;;;27.10;;
58661;SDS011;44432;49.786;22.760;2023-12-14T00:42:22;49.60;;;25.60;;
58661;SDS011;44432;49.786;22.760;2023-12-14T00:44:53;42.20;;;23.30;;
58661;SDS011;44432;49.786;22.760;2023-12-14T00:47:24;46.90;;;25.40;;
58661;SDS011;44432;49.786;22.760;2023-12-14T00:49:55;48.70;;;23.50;;
58661;SDS011;44432;49.786;22.760;2023-12-14T00:52:26;45.40;;;24.00;;
58661;SDS011;44432;49.786;22.760;2023-12-14T00:54:57;47.40;;;23.50;;
58661;SDS011;44432;49.786;22.760;2023-12-14T00:57:28;46.80;;;23.70;;
58661;SDS011;44432;49.786;22.760;2023-12-14T00:59:59;44.80;;;23.30;;
58661;SDS011;44432;49.786;22.760;2023-12-14T01:02:31;48.10;;;23.70;;
58661;SDS011;44432;49.786;22.760;2023-12-14T01:05:02;42.80;;;21.30;;
58661;SDS011;44432;49.786;22.760;2023-12-14T01:07:34;44.10;;;21.80;;
58661;SDS011;44432;49.786;22.760;2023-12-14T01:10:06;48.40;;;23.30;;
58661;SDS011;44432;49.786;22.760;2023-12-14T01:12:38;44.70;;;22.00;;
58661;SDS011;44432;49.786;22.760;2023-12-14T01:15:10;45.00;;;22.40;;
58661;SDS011;44432;49.786;22.760;2023-12-14T01:17:41;47.90;;;22.80;;
58661;SDS011;44432;49.786;22.760;2023-12-14T01:20:13;51.60;;;23.90;;
58661;SDS011;44432;49.786;22.760;2023-12-14T01:22:44;47.50;;;21.90;;
58661;SDS011;44432;49.786;22.760;2023-12-14T01:25:15;49.40;;;23.30;;
58661;SDS011;44432;49.786;22.760;2023-12-14T01:27:46;50.00;;;23.20;;
58661;SDS011;44432;49.786;22.760;2023-12-14T01:30:17;50.10;;;23.30;;
58661;SDS011;44432;49.786;22.760;2023-12-14T01:32:48;50.80;;;23.40;;
58661;SDS011;44432;49.786;22.760;2023-12-14T01:35:19;44.80;;;22.00;;
58661;SDS011;44432;49.786;22.760;2023-12-14T01:37:50;44.90;;;21.90;;
58661;SDS011;44432;49.786;22.760;2023-12-14T01:40:21;48.00;;;22.10;;
58661;SDS011;44432;49.786;22.760;2023-12-14T01:42:52;45.00;;;20.10;;
58661;SDS011;44432;49.786;22.760;2023-12-14T01:45:34;45.50;;;21.20;;
58661;SDS011;44432;49.786;22.760;2023-12-14T01:48:05;38.70;;;19.70;;
58661;SDS011;44432;49.786;22.760;2023-12-14T01:50:36;36.90;;;18.80;;
58661;SDS011;44432;49.786;22.760;2023-12-14T01:53:07;40.70;;;19.90;;
58661;SDS011;44432;49.786;22.760;2023-12-14T01:55:39;35.90;;;18.00;;
58661;SDS011;44432;49.786;22.760;2023-12-14T01:58:10;42.30;;;20.60;;
58661;SDS011;44432;49.786;22.760;2023-12-14T02:00:42;37.90;;;19.40;;
58661;SDS011;44432;49.786;22.760;2023-12-14T02:03:18;37.30;;;18.80;;
58661;SDS011;44432;49.786;22.760;2023-12-14T02:05:49;32.30;;;17.50;;
58661;SDS011;44432;49.786;22.760;2023-12-14T02:08:20;35.60;;;17.30;;
58661;SDS011;44432;49.786;22.760;2023-12-14T02:10:51;33.10;;;17.60;;
58661;SDS011;44432;49.786;22.760;2023-12-14T02:13:22;32.90;;;18.10;;
58661;SDS011;44432;49.786;22.760;2023-12-14T02:15:54;31.20;;;17.30;;
58661;SDS011;44432;49.786;22.760;2023-12-14T02:18:25;32.60;;;17.50;;
58661;SDS011;44432;49.786;22.760;2023-12-14T02:20:56;30.60;;;17.60;;
58661;SDS011;44432;49.786;22.760;2023-12-14T02:23:27;32.80;;;17.90;;
58661;SDS011;44432;49.786;22.760;2023-12-14T02:25:58;31.20;;;17.50;;
58661;SDS011;44432;49.786;22.760;2023-12-14T02:28:29;29.60;;;18.40;;
58661;SDS011;44432;49.786;22.760;2023-12-14T02:31:00;30.10;;;17.80;;
58661;SDS011;44432;49.786;22.760;2023-12-14T02:33:31;30.70;;;17.60;;
58661;SDS011;44432;49.786;22.760;2023-12-14T02:36:02;28.10;;;16.90;;
58661;SDS011;44432;49.786;22.760;2023-12-14T02:38:34;30.90;;;17.50;;
58661;SDS011;44432;49.786;22.760;2023-12-14T02:41:05;27.20;;;16.10;;
58661;SDS011;44432;49.786;22.760;2023-12-14T02:43:36;31.60;;;17.30;;
58661;SDS011;44432;49.786;22.760;2023-12-14T02:46:08;31.30;;;17.30;;
58661;SDS011;44432;49.786;22.760;2023-12-14T02:48:42;34.10;;;18.50;;
58661;SDS011;44432;49.786;22.760;2023-12-14T02:51:13;34.40;;;19.30;;
58661;SDS011;44432;49.786;22.760;2023-12-14T02:53:44;30.40;;;16.20;;
58661;SDS011;44432;49.786;22.760;2023-12-14T02:56:15;29.60;;;15.50;;
58661;SDS011;44432;49.786;22.760;2023-12-14T02:58:47;30.50;;;15.70;;
58661;SDS011;44432;49.786;22.760;2023-12-14T03:01:19;28.30;;;16.10;;
58661;SDS011;44432;49.786;22.760;2023-12-14T03:03:50;33.10;;;17.30;;
58661;SDS011;44432;49.786;22.760;2023-12-14T03:06:21;39.10;;;17.30;;
58661;SDS011;44432;49.786;22.760;2023-12-14T03:08:52;34.80;;;18.10;;
58661;SDS011;44432;49.786;22.760;2023-12-14T03:11:23;31.80;;;17.00;;
58661;SDS011;44432;49.786;22.760;2023-12-14T03:13:55;32.20;;;17.80;;
58661;SDS011;44432;49.786;22.760;2023-12-14T03:16:26;27.30;;;15.40;;
58661;SDS011;44432;49.786;22.760;2023-12-14T03:18:57;33.30;;;16.40;;
58661;SDS011;44432;49.786;22.760;2023-12-14T03:21:28;26.80;;;13.90;;
58661;SDS011;44432;49.786;22.760;2023-12-14T03:23:59;30.50;;;16.20;;
58661;SDS011;44432;49.786;22.760;2023-12-14T03:26:30;28.60;;;15.60;;
58661;SDS011;44432;49.786;22.760;2023-12-14T03:29:01;27.90;;;14.30;;
58661;SDS011;44432;49.786;22.760;2023-12-14T03:31:32;25.00;;;14.10;;
58661;SDS011;44432;49.786;22.760;2023-12-14T03:34:03;25.40;;;14.00;;
58661;SDS011;44432;49.786;22.760;2023-12-14T03:36:34;26.90;;;14.60;;
58661;SDS011;44432;49.786;22.760;2023-12-14T03:39:05;28.60;;;15.20;;
58661;SDS011;44432;49.786;22.760;2023-12-14T03:41:36;32.60;;;16.20;;
58661;SDS011;44432;49.786;22.760;2023-12-14T03:44:07;29.70;;;15.10;;
58661;SDS011;44432;49.786;22.760;2023-12-14T03:46:38;29.20;;;15.40;;
58661;SDS011;44432;49.786;22.760;2023-12-14T03:49:09;28.50;;;15.00;;
58661;SDS011;44432;49.786;22.760;2023-12-14T03:51:40;26.80;;;14.60;;
58661;SDS011;44432;49.786;22.760;2023-12-14T03:54:11;28.40;;;14.90;;
58661;SDS011;44432;49.786;22.760;2023-12-14T03:56:42;30.20;;;16.30;;
58661;SDS011;44432;49.786;22.760;2023-12-14T03:59:13;27.10;;;14.40;;
58661;SDS011;44432;49.786;22.760;2023-12-14T04:01:44;26.70;;;15.20;;
58661;SDS011;44432;49.786;22.760;2023-12-14T04:04:15;25.30;;;13.70;;
58661;SDS011;44432;49.786;22.760;2023-12-14T04:06:46;25.10;;;14.30;;
58661;SDS011;44432;49.786;22.760;2023-12-14T04:09:19;26.80;;;15.90;;
58661;SDS011;44432;49.786;22.760;2023-12-14T04:11:50;31.80;;;14.90;;
58661;SDS011;44432;49.786;22.760;2023-12-14T04:14:21;31.60;;;15.60;;
58661;SDS011;44432;49.786;22.760;2023-12-14T04:16:52;31.50;;;16.10;;
58661;SDS011;44432;49.786;22.760;2023-12-14T04:19:23;26.70;;;15.20;;
58661;SDS011;44432;49.786;22.760;2023-12-14T04:21:54;31.10;;;16.30;;
58661;SDS011;44432;49.786;22.760;2023-12-14T04:24:25;32.30;;;17.20;;
58661;SDS011;44432;49.786;22.760;2023-12-14T04:26:56;33.00;;;16.60;;
58661;SDS011;44432;49.786;22.760;2023-12-14T04:29:27;33.50;;;16.20;;
58661;SDS011;44432;49.786;22.760;2023-12-14T04:31:58;29.10;;;15.70;;
58661;SDS011;44432;49.786;22.760;2023-12-14T04:34:30;30.10;;;14.60;;
58661;SDS011;44432;49.786;22.760;2023-12-14T04:37:01;32.70;;;16.90;;
58661;SDS011;44432;49.786;22.760;2023-12-14T04:39:32;32.10;;;15.50;;
58661;SDS011;44432;49.786;22.760;2023-12-14T04:42:04;34.50;;;17.30;;
58661;SDS011;44432;49.786;22.760;2023-12-14T04:44:35;31.10;;;15.30;;
58661;SDS011;44432;49.786;22.760;2023-12-14T04:47:07;34.60;;;16.90;;
58661;SDS011;44432;49.786;22.760;2023-12-14T04:49:38;32.20;;;16.30;;
58661;SDS011;44432;49.786;22.760;2023-12-14T04:52:09;32.20;;;15.40;;
58661;SDS011;44432;49.786;22.760;2023-12-14T04:54:40;29.50;;;14.60;;
58661;SDS011;44432;49.786;22.760;2023-12-14T04:57:11;31.10;;;15.10;;
58661;SDS011;44432;49.786;22.760;2023-12-14T04:59:42;31.30;;;14.90;;
58661;SDS011;44432;49.786;22.760;2023-12-14T05:02:13;31.00;;;15.10;;
58661;SDS011;44432;49.786;22.760;2023-12-14T05:04:44;29.30;;;14.50;;
58661;SDS011;44432;49.786;22.760;2023-12-14T05:07:15;28.30;;;14.90;;
58661;SDS011;44432;49.786;22.760;2023-12-14T05:09:46;27.60;;;14.50;;
58661;SDS011;44432;49.786;22.760;2023-12-14T05:12:17;36.70;;;19.30;;
58661;SDS011;44432;49.786;22.760;2023-12-14T05:14:48;31.00;;;16.10;;
58661;SDS011;44432;49.786;22.760;2023-12-14T05:17:19;30.30;;;15.90;;
58661;SDS011;44432;49.786;22.760;2023-12-14T05:19:50;31.90;;;16.10;;
58661;SDS011;44432;49.786;22.760;2023-12-14T05:22:21;31.10;;;16.20;;
58661;SDS011;44432;49.786;22.760;2023-12-14T05:24:52;36.00;;;16.70;;
58661;SDS011;44432;49.786;22.760;2023-12-14T05:27:23;39.90;;;20.10;;
58661;SDS011;44432;49.786;22.760;2023-12-14T05:29:54;36.70;;;18.90;;
58661;SDS011;44432;49.786;22.760;2023-12-14T05:32:25;29.50;;;16.30;;
58661;SDS011;44432;49.786;22.760;2023-12-14T05:34:56;32.40;;;15.80;;
58661;SDS011;44432;49.786;22.760;2023-12-14T05:37:27;40.60;;;20.40;;
58661;SDS011;44432;49.786;22.760;2023-12-14T05:39:58;31.00;;;15.40;;
58661;SDS011;44432;49.786;22.760;2023-12-14T05:42:30;33.40;;;15.90;;
58661;SDS011;44432;49.786;22.760;2023-12-14T05:45:01;31.00;;;15.00;;
58661;SDS011;44432;49.786;22.760;2023-12-14T05:47:32;30.40;;;16.80;;
58661;SDS011;44432;49.786;22.760;2023-12-14T05:50:04;32.20;;;16.70;;
58661;SDS011;44432;49.786;22.760;2023-12-14T05:52:37;32.50;;;14.70;;
58661;SDS011;44432;49.786;22.760;2023-12-14T05:55:09;34.50;;;16.40;;
58661;SDS011;44432;49.786;22.760;2023-12-14T05:57:40;33.90;;;15.00;;
58661;SDS011;44432;49.786;22.760;2023-12-14T06:00:12;28.00;;;13.90;;
58661;SDS011;44432;49.786;22.760;2023-12-14T06:02:43;30.60;;;15.10;;
58661;SDS011;44432;49.786;22.760;2023-12-14T06:05:15;29.50;;;14.20;;
58661;SDS011;44432;49.786;22.760;2023-12-14T06:07:46;27.80;;;14.30;;
58661;SDS011;44432;49.786;22.760;2023-12-14T06:10:17;28.10;;;14.60;;
58661;SDS011;44432;49.786;22.760;2023-12-14T06:12:49;33.70;;;16.20;;
58661;SDS011;44432;49.786;22.760;2023-12-14T06:15:20;28.10;;;13.30;;
58661;SDS011;44432;49.786;22.760;2023-12-14T06:17:51;29.40;;;15.00;;
58661;SDS011;44432;49.786;22.760;2023-12-14T06:20:22;31.80;;;15.60;;
58661;SDS011;44432;49.786;22.760;2023-12-14T06:22:53;30.50;;;15.60;;
58661;SDS011;44432;49.786;22.760;2023-12-14T06:25:24;33.30;;;16.30;;
58661;SDS011;44432;49.786;22.760;2023-12-14T06:27:55;38.10;;;17.20;;
58661;SDS011;44432;49.786;22.760;2023-12-14T06:30:26;47.80;;;18.60;;
58661;SDS011;44432;49.786;22.760;2023-12-14T06:32:57;42.10;;;18.30;;
58661;SDS011;44432;49.786;22.760;2023-12-14T06:35:28;45.60;;;20.30;;
58661;SDS011;44432;49.786;22.760;2023-12-14T06:37:59;43.70;;;18.30;;
58661;SDS011;44432;49.786;22.760;2023-12-14T06:40:31;50.40;;;21.00;;
58661;SDS011;44432;49.786;22.760;2023-12-14T06:43:02;45.50;;;18.40;;
58661;SDS011;44432;49.786;22.760;2023-12-14T06:45:34;44.50;;;19.30;;
58661;SDS011;44432;49.786;22.760;2023-12-14T06:50:37;33.50;;;15.60;;
58661;SDS011;44432;49.786;22.760;2023-12-14T06:53:08;40.10;;;18.40;;
58661;SDS011;44432;49.786;22.760;2023-12-14T06:55:39;41.70;;;16.10;;
58661;SDS011;44432;49.786;22.760;2023-12-14T06:58:10;39.70;;;14.80;;
58661;SDS011;44432;49.786;22.760;2023-12-14T07:00:42;40.10;;;20.10;;
58661;SDS011;44432;49.786;22.760;2023-12-14T07:03:12;37.60;;;16.70;;
58661;SDS011;44432;49.786;22.760;2023-12-14T07:05:45;39.60;;;20.90;;
58661;SDS011;44432;49.786;22.760;2023-12-14T07:08:16;35.40;;;18.30;;
58661;SDS011;44432;49.786;22.760;2023-12-14T07:10:47;34.40;;;16.90;;
58661;SDS011;44432;49.786;22.760;2023-12-14T07:13:18;35.30;;;15.70;;
58661;SDS011;44432;49.786;22.760;2023-12-14T07:15:51;38.10;;;17.40;;
58661;SDS011;44432;49.786;22.760;2023-12-14T07:18:22;32.80;;;15.70;;
58661;SDS011;44432;49.786;22.760;2023-12-14T07:20:53;35.90;;;16.50;;
58661;SDS011;44432;49.786;22.760;2023-12-14T07:23:24;34.40;;;15.10;;
58661;SDS011;44432;49.786;22.760;2023-12-14T07:25:55;36.00;;;16.20;;
58661;SDS011;44432;49.786;22.760;2023-12-14T07:28:27;34.50;;;15.50;;
58661;SDS011;44432;49.786;22.760;2023-12-14T07:30:58;36.00;;;17.00;;
58661;SDS011;44432;49.786;22.760;2023-12-14T07:33:29;31.60;;;15.20;;
58661;SDS011;44432;49.786;22.760;2023-12-14T07:36:00;30.40;;;15.00;;
58661;SDS011;44432;49.786;22.760;2023-12-14T07:38:33;33.80;;;18.20;;
58661;SDS011;44432;49.786;22.760;2023-12-14T07:41:04;33.00;;;15.40;;
58661;SDS011;44432;49.786;22.760;2023-12-14T07:43:35;31.50;;;15.80;;
58661;SDS011;44432;49.786;22.760;2023-12-14T07:46:06;30.20;;;16.50;;
58661;SDS011;44432;49.786;22.760;2023-12-14T07:48:37;37.50;;;18.50;;
58661;SDS011;44432;49.786;22.760;2023-12-14T07:51:08;32.20;;;15.00;;
58661;SDS011;44432;49.786;22.760;2023-12-14T07:53:39;29.20;;;14.20;;
58661;SDS011;44432;49.786;22.760;2023-12-14T07:56:11;32.50;;;17.70;;
58661;SDS011;44432;49.786;22.760;2023-12-14T07:58:42;29.00;;;14.20;;
58661;SDS011;44432;49.786;22.760;2023-12-14T08:01:14;29.30;;;14.40;;
58661;SDS011;44432;49.786;22.760;2023-12-14T08:03:45;27.50;;;13.60;;
58661;SDS011;44432;49.786;22.760;2023-12-14T08:06:16;29.50;;;14.60;;
58661;SDS011;44432;49.786;22.760;2023-12-14T08:08:48;30.60;;;14.00;;
58661;SDS011;44432;49.786;22.760;2023-12-14T08:11:19;30.80;;;14.70;;
58661;SDS011;44432;49.786;22.760;2023-12-14T08:13:50;36.70;;;22.80;;
58661;SDS011;44432;49.786;22.760;2023-12-14T08:16:21;30.70;;;16.70;;
58661;SDS011;44432;49.786;22.760;2023-12-14T08:18:53;38.70;;;20.90;;
58661;SDS011;44432;49.786;22.760;2023-12-14T08:21:23;27.10;;;16.40;;
58661;SDS011;44432;49.786;22.760;2023-12-14T08:23:55;30.20;;;18.40;;
58661;SDS011;44432;49.786;22.760;2023-12-14T08:26:26;28.60;;;16.30;;
58661;SDS011;44432;49.786;22.760;2023-12-14T08:28:57;33.70;;;20.70;;
58661;SDS011;44432;49.786;22.760;2023-12-14T08:31:28;34.40;;;21.70;;
58661;SDS011;44432;49.786;22.760;2023-12-14T08:33:59;27.30;;;15.20;;
58661;SDS011;44432;49.786;22.760;2023-12-14T08:36:31;31.50;;;18.70;;
58661;SDS011;44432;49.786;22.760;2023-12-14T08:39:02;34.50;;;22.70;;
58661;SDS011;44432;49.786;22.760;2023-12-14T08:41:33;23.80;;;13.40;;
58661;SDS011;44432;49.786;22.760;2023-12-14T08:44:05;26.40;;;14.70;;
58661;SDS011;44432;49.786;22.760;2023-12-14T08:46:40;27.80;;;15.60;;
58661;SDS011;44432;49.786;22.760;2023-12-14T08:49:12;23.30;;;13.50;;
58661;SDS011;44432;49.786;22.760;2023-12-14T08:51:44;23.30;;;13.00;;
58661;SDS011;44432;49.786;22.760;2023-12-14T08:54:15;27.40;;;14.80;;
58661;SDS011;44432;49.786;22.760;2023-12-14T08:56:47;24.10;;;14.10;;
58661;SDS011;44432;49.786;22.760;2023-12-14T08:59:18;24.10;;;15.10;;
58661;SDS011;44432;49.786;22.760;2023-12-14T09:01:49;21.90;;;14.10;;
58661;SDS011;44432;49.786;22.760;2023-12-14T09:04:20;25.50;;;13.20;;
58661;SDS011;44432;49.786;22.760;2023-12-14T09:06:51;25.70;;;15.60;;
58661;SDS011;44432;49.786;22.760;2023-12-14T09:09:23;29.90;;;15.40;;
58661;SDS011;44432;49.786;22.760;2023-12-14T09:11:54;25.50;;;14.90;;
58661;SDS011;44432;49.786;22.760;2023-12-14T09:14:25;24.50;;;14.60;;
58661;SDS011;44432;49.786;22.760;2023-12-14T09:16:56;24.40;;;14.10;;
58661;SDS011;44432;49.786;22.760;2023-12-14T09:19:28;25.20;;;14.30;;
58661;SDS011;44432;49.786;22.760;2023-12-14T09:22:00;32.40;;;18.90;;
58661;SDS011;44432;49.786;22.760;2023-12-14T09:24:31;27.30;;;16.70;;
58661;SDS011;44432;49.786;22.760;2023-12-14T09:27:02;28.80;;;16.60;;
58661;SDS011;44432;49.786;22.760;2023-12-14T09:29:33;28.20;;;17.00;;
58661;SDS011;44432;49.786;22.760;2023-12-14T09:32:06;29.30;;;15.50;;
58661;SDS011;44432;49.786;22.760;2023-12-14T09:34:38;27.80;;;16.70;;
58661;SDS011;44432;49.786;22.760;2023-12-14T09:37:09;28.50;;;16.40;;
58661;SDS011;44432;49.786;22.760;2023-12-14T09:39:42;27.00;;;16.10;;
58661;SDS011;44432;49.786;22.760;2023-12-14T09:42:14;33.80;;;17.20;;
58661;SDS011;44432;49.786;22.760;2023-12-14T09:44:48;29.60;;;15.70;;
58661;SDS011;44432;49.786;22.760;2023-12-14T09:47:19;28.80;;;16.60;;
58661;SDS011;44432;49.786;22.760;2023-12-14T09:49:50;25.20;;;14.30;;
58661;SDS011;44432;49.786;22.760;2023-12-14T09:52:22;25.50;;;14.50;;
58661;SDS011;44432;49.786;22.760;2023-12-14T09:54:53;26.20;;;14.90;;
58661;SDS011;44432;49.786;22.760;2023-12-14T09:57:24;25.10;;;13.70;;
58661;SDS011;44432;49.786;22.760;2023-12-14T09:59:55;26.90;;;14.30;;
58661;SDS011;44432;49.786;22.760;2023-12-14T10:02:27;28.40;;;15.90;;
58661;SDS011;44432;49.786;22.760;2023-12-14T10:04:58;24.00;;;13.70;;
58661;SDS011;44432;49.786;22.760;2023-12-14T10:07:29;27.10;;;15.70;;
58661;SDS011;44432;49.786;22.760;2023-12-14T10:10:10;29.30;;;15.10;;
58661;SDS011;44432;49.786;22.760;2023-12-14T10:12:51;30.40;;;17.40;;
58661;SDS011;44432;49.786;22.760;2023-12-14T10:15:23;29.00;;;15.10;;
58661;SDS011;44432;49.786;22.760;2023-12-14T10:17:55;31.70;;;16.40;;
58661;SDS011;44432;49.786;22.760;2023-12-14T10:20:26;29.10;;;16.60;;
58661;SDS011;44432;49.786;22.760;2023-12-14T10:22:58;32.10;;;14.50;;
58661;SDS011;44432;49.786;22.760;2023-12-14T10:25:29;23.70;;;14.40;;
58661;SDS011;44432;49.786;22.760;2023-12-14T10:28:00;25.80;;;13.30;;
58661;SDS011;44432;49.786;22.760;2023-12-14T10:30:31;21.60;;;12.80;;
58661;SDS011;44432;49.786;22.760;2023-12-14T10:33:03;23.30;;;12.60;;
58661;SDS011;44432;49.786;22.760;2023-12-14T10:35:34;24.00;;;13.70;;
58661;SDS011;44432;49.786;22.760;2023-12-14T10:38:05;24.00;;;13.60;;
58661;SDS011;44432;49.786;22.760;2023-12-14T10:40:39;27.10;;;16.00;;
58661;SDS011;44432;49.786;22.760;2023-12-14T10:43:11;26.00;;;14.90;;
58661;SDS011;44432;49.786;22.760;2023-12-14T10:45:44;25.50;;;14.40;;
58661;SDS011;44432;49.786;22.760;2023-12-14T10:48:17;25.30;;;14.50;;
58661;SDS011;44432;49.786;22.760;2023-12-14T10:50:49;20.50;;;12.10;;
58661;SDS011;44432;49.786;22.760;2023-12-14T10:53:22;22.20;;;13.40;;
58661;SDS011;44432;49.786;22.760;2023-12-14T10:55:54;24.60;;;13.60;;
58661;SDS011;44432;49.786;22.760;2023-12-14T10:58:28;23.00;;;13.70;;
58661;SDS011;44432;49.786;22.760;2023-12-14T11:01:16;21.00;;;12.90;;
58661;SDS011;44432;49.786;22.760;2023-12-14T11:03:48;19.90;;;11.80;;
58661;SDS011;44432;49.786;22.760;2023-12-14T11:06:27;20.20;;;12.40;;
58661;SDS011;44432;49.786;22.760;2023-12-14T11:09:00;18.70;;;10.70;;
58661;SDS011;44432;49.786;22.760;2023-12-14T11:11:41;19.30;;;11.20;;
58661;SDS011;44432;49.786;22.760;2023-12-14T11:14:25;18.70;;;11.50;;
58661;SDS011;44432;49.786;22.760;2023-12-14T11:17:01;18.30;;;11.30;;
58661;SDS011;44432;49.786;22.760;2023-12-14T11:19:35;18.20;;;11.20;;
58661;SDS011;44432;49.786;22.760;2023-12-14T11:22:10;17.10;;;10.90;;
58661;SDS011;44432;49.786;22.760;2023-12-14T11:24:52;17.60;;;10.60;;
58661;SDS011;44432;49.786;22.760;2023-12-14T11:27:28;19.90;;;11.10;;
58661;SDS011;44432;49.786;22.760;2023-12-14T11:29:59;17.70;;;9.90;;
58661;SDS011;44432;49.786;22.760;2023-12-14T11:32:31;18.20;;;10.60;;
58661;SDS011;44432;49.786;22.760;2023-12-14T11:35:04;17.90;;;10.30;;
58661;SDS011;44432;49.786;22.760;2023-12-14T11:37:40;21.00;;;12.40;;
58661;SDS011;44432;49.786;22.760;2023-12-14T11:40:11;18.40;;;10.50;;
58661;SDS011;44432;49.786;22.760;2023-12-14T11:45:14;16.30;;;9.50;;
58661;SDS011;44432;49.786;22.760;2023-12-14T11:47:45;19.90;;;12.00;;
58661;SDS011;44432;49.786;22.760;2023-12-14T11:50:16;19.70;;;11.10;;
58661;SDS011;44432;49.786;22.760;2023-12-14T11:52:48;16.60;;;10.50;;
58661;SDS011;44432;49.786;22.760;2023-12-14T11:55:21;22.70;;;14.10;;
58661;SDS011;44432;49.786;22.760;2023-12-14T11:57:52;25.60;;;17.20;;
58661;SDS011;44432;49.786;22.760;2023-12-14T12:00:26;17.00;;;10.50;;
58661;SDS011;44432;49.786;22.760;2023-12-14T12:03:08;18.90;;;12.20;;
58661;SDS011;44432;49.786;22.760;2023-12-14T12:05:41;19.10;;;11.50;;
58661;SDS011;44432;49.786;22.760;2023-12-14T12:08:14;22.10;;;14.80;;
58661;SDS011;44432;49.786;22.760;2023-12-14T12:10:47;19.60;;;11.40;;
58661;SDS011;44432;49.786;22.760;2023-12-14T12:13:19;19.80;;;12.10;;
58661;SDS011;44432;49.786;22.760;2023-12-14T12:15:51;21.50;;;13.80;;
58661;SDS011;44432;49.786;22.760;2023-12-14T12:18:22;18.10;;;11.20;;
58661;SDS011;44432;49.786;22.760;2023-12-14T12:20:54;19.70;;;11.90;;
58661;SDS011;44432;49.786;22.760;2023-12-14T12:23:28;19.60;;;12.00;;
58661;SDS011;44432;49.786;22.760;2023-12-14T12:25:59;16.80;;;10.50;;
58661;SDS011;44432;49.786;22.760;2023-12-14T12:28:30;19.20;;;11.80;;
58661;SDS011;44432;49.786;22.760;2023-12-14T12:31:01;21.60;;;11.10;;
58661;SDS011;44432;49.786;22.760;2023-12-14T12:33:33;19.00;;;13.30;;
58661;SDS011;44432;49.786;22.760;2023-12-14T12:36:06;22.00;;;14.10;;
58661;SDS011;44432;49.786;22.760;2023-12-14T12:38:38;19.00;;;12.20;;
58661;SDS011;44432;49.786;22.760;2023-12-14T12:41:09;18.20;;;11.30;;
58661;SDS011;44432;49.786;22.760;2023-12-14T12:43:40;19.70;;;12.20;;
58661;SDS011;44432;49.786;22.760;2023-12-14T12:46:11;24.60;;;15.80;;
58661;SDS011;44432;49.786;22.760;2023-12-14T12:48:42;26.10;;;16.90;;
58661;SDS011;44432;49.786;22.760;2023-12-14T12:51:15;20.70;;;13.10;;
58661;SDS011;44432;49.786;22.760;2023-12-14T12:53:46;25.00;;;16.10;;
58661;SDS011;44432;49.786;22.760;2023-12-14T12:56:17;23.10;;;16.10;;
58661;SDS011;44432;49.786;22.760;2023-12-14T12:58:48;20.20;;;13.00;;
58661;SDS011;44432;49.786;22.760;2023-12-14T13:01:21;20.70;;;12.90;;
58661;SDS011;44432;49.786;22.760;2023-12-14T13:03:56;22.50;;;13.20;;
58661;SDS011;44432;49.786;22.760;2023-12-14T13:06:29;24.20;;;15.20;;
58661;SDS011;44432;49.786;22.760;2023-12-14T13:09:00;19.70;;;13.30;;
58661;SDS011;44432;49.786;22.760;2023-12-14T13:11:31;15.90;;;9.40;;
58661;SDS011;44432;49.786;22.760;2023-12-14T13:14:02;20.20;;;11.30;;
58661;SDS011;44432;49.786;22.760;2023-12-14T13:16:35;14.30;;;8.80;;
58661;SDS011;44432;49.786;22.760;2023-12-14T13:19:07;14.30;;;8.50;;
58661;SDS011;44432;49.786;22.760;2023-12-14T13:21:38;14.40;;;10.30;;
58661;SDS011;44432;49.786;22.760;2023-12-14T13:24:09;15.10;;;9.70;;
58661;SDS011;44432;49.786;22.760;2023-12-14T13:26:40;14.70;;;9.50;;
58661;SDS011;44432;49.786;22.760;2023-12-14T13:29:11;15.70;;;9.20;;
58661;SDS011;44432;49.786;22.760;2023-12-14T13:31:42;18.60;;;10.30;;
58661;SDS011;44432;49.786;22.760;2023-12-14T13:34:13;19.90;;;11.30;;
58661;SDS011;44432;49.786;22.760;2023-12-14T13:36:44;19.30;;;10.60;;
58661;SDS011;44432;49.786;22.760;2023-12-14T13:39:15;14.50;;;10.00;;
58661;SDS011;44432;49.786;22.760;2023-12-14T13:41:47;16.50;;;10.30;;
58661;SDS011;44432;49.786;22.760;2023-12-14T13:44:18;16.90;;;10.70;;
58661;SDS011;44432;49.786;22.760;2023-12-14T13:46:50;13.60;;;8.50;;
58661;SDS011;44432;49.786;22.760;2023-12-14T13:49:21;12.80;;;7.90;;
58661;SDS011;44432;49.786;22.760;2023-12-14T13:51:52;16.10;;;11.40;;
58661;SDS011;44432;49.786;22.760;2023-12-14T13:54:23;15.80;;;10.30;;
58661;SDS011;44432;49.786;22.760;2023-12-14T13:56:54;15.50;;;9.70;;
58661;SDS011;44432;49.786;22.760;2023-12-14T13:59:25;11.60;;;7.00;;
58661;SDS011;44432;49.786;22.760;2023-12-14T14:01:56;13.00;;;7.60;;
58661;SDS011;44432;49.786;22.760;2023-12-14T14:04:27;14.50;;;9.40;;
58661;SDS011;44432;49.786;22.760;2023-12-14T14:06:58;17.10;;;10.60;;
58661;SDS011;44432;49.786;22.760;2023-12-14T14:09:29;27.60;;;16.90;;
58661;SDS011;44432;49.786;22.760;2023-12-14T14:12:01;17.90;;;8.20;;
58661;SDS011;44432;49.786;22.760;2023-12-14T14:14:32;21.10;;;13.20;;
58661;SDS011;44432;49.786;22.760;2023-12-14T14:17:04;13.60;;;8.60;;
58661;SDS011;44432;49.786;22.760;2023-12-14T14:19:36;29.40;;;18.40;;
58661;SDS011;44432;49.786;22.760;2023-12-14T14:22:07;21.20;;;13.60;;
58661;SDS011;44432;49.786;22.760;2023-12-14T14:24:38;22.90;;;15.50;;
58661;SDS011;44432;49.786;22.760;2023-12-14T14:27:09;17.00;;;12.60;;
58661;SDS011;44432;49.786;22.760;2023-12-14T14:29:40;34.10;;;19.80;;
58661;SDS011;44432;49.786;22.760;2023-12-14T14:32:11;25.60;;;18.50;;
58661;SDS011;44432;49.786;22.760;2023-12-14T14:34:43;19.40;;;11.40;;
58661;SDS011;44432;49.786;22.760;2023-12-14T14:37:14;19.50;;;11.50;;
58661;SDS011;44432;49.786;22.760;2023-12-14T14:39:45;27.60;;;16.70;;